Time;durP1;ratioP1;P1;durP2;ratioP2;P2;SDS_P1;SDS_P2;PMS_P1;PMS_P2;Temp;Humidity;BMP_temperature;BMP_pressure;BME280_temperature;BME280_humidity;BME280_pressure;Samples;Min_cycle;Max_cycle;Signal;HPM_P1;HPM_P2
2022/07/22 00:00:46;;;;;;;9.40;9.10;;;20.20;99.90;;;;;;5018830;28;20236;-88
2022/07/22 00:03:13;;;;;;;9.50;9.20;;;20.20;99.90;;;;;;5018095;28;20228;-87
2022/07/22 00:05:42;;;;;;;9.75;9.45;;;20.10;99.90;;;;;;5017696;28;20319;-88
2022/07/22 00:08:12;;;;;;;9.40;9.10;;;20.00;99.90;;;;;;5017299;28;20240;-87
2022/07/22 00:10:40;;;;;;;9.40;9.10;;;20.00;99.90;;;;;;5017818;28;20288;-88
2022/07/22 00:13:08;;;;;;;9.57;9.27;;;19.90;99.90;;;;;;5017729;28;20231;-87
2022/07/22 00:15:37;;;;;;;9.75;9.45;;;19.90;99.90;;;;;;5017784;28;20280;-88
2022/07/22 00:18:06;;;;;;;9.60;9.30;;;19.90;99.90;;;;;;5017850;28;20231;-88
2022/07/22 00:20:39;;;;;;;9.48;9.18;;;19.90;99.90;;;;;;5018114;28;20266;-88
2022/07/22 00:23:08;;;;;;;9.80;9.50;;;19.90;99.90;;;;;;5018512;28;20239;-88
2022/07/22 00:25:37;;;;;;;9.82;9.52;;;19.80;99.90;;;;;;5017584;28;20240;-87
2022/07/22 00:28:06;;;;;;;9.60;9.30;;;19.70;99.90;;;;;;5017985;28;20298;-88
2022/07/22 00:30:34;;;;;;;9.50;9.20;;;19.70;99.90;;;;;;5018310;28;20224;-88
2022/07/22 00:33:02;;;;;;;9.60;9.30;;;19.70;99.90;;;;;;5018613;28;20236;-88
2022/07/22 00:35:33;;;;;;;9.50;9.20;;;19.60;99.90;;;;;;5018077;28;20263;-88
2022/07/22 00:38:05;;;;;;;9.40;9.10;;;19.60;99.90;;;;;;5017854;28;20232;-88
2022/07/22 00:40:34;;;;;;;9.40;9.10;;;19.60;99.90;;;;;;5018054;28;20283;-88
2022/07/22 00:43:03;;;;;;;9.40;9.10;;;19.50;99.90;;;;;;5017881;28;20295;-87
2022/07/22 00:45:31;;;;;;;9.63;9.32;;;19.50;99.90;;;;;;5017625;28;20247;-88
2022/07/22 00:47:59;;;;;;;9.50;9.20;;;19.40;99.90;;;;;;5017251;28;20273;-88
2022/07/22 00:50:32;;;;;;;9.48;9.18;;;19.40;99.90;;;;;;5017816;28;20311;-87
2022/07/22 00:53:02;;;;;;;9.50;9.20;;;19.40;99.90;;;;;;5019747;28;20774;-88
2022/07/22 00:55:30;;;;;;;9.48;9.18;;;19.40;99.90;;;;;;5021346;28;20287;-87
2022/07/22 00:57:58;;;;;;;9.40;9.10;;;19.30;99.90;;;;;;5020439;28;20231;-88
2022/07/22 01:00:31;;;;;;;9.23;8.93;;;19.30;99.90;;;;;;5020642;28;20251;-88
2022/07/22 01:02:59;;;;;;;9.38;9.07;;;19.30;99.90;;;;;;5021261;28;20232;-88
2022/07/22 01:05:29;;;;;;;9.20;8.90;;;19.30;99.90;;;;;;5020393;28;20236;-88
2022/07/22 01:07:57;;;;;;;9.20;8.90;;;19.30;99.90;;;;;;5020717;28;20284;-88
2022/07/22 01:10:29;;;;;;;9.40;9.10;;;19.30;99.90;;;;;;5020947;28;20224;-88
2022/07/22 01:12:57;;;;;;;9.40;9.10;;;19.20;99.90;;;;;;5021170;28;20232;-88
2022/07/22 01:15:27;;;;;;;9.50;9.20;;;19.20;99.90;;;;;;5020603;28;20282;-87
2022/07/22 01:17:55;;;;;;;9.30;9.00;;;19.10;99.90;;;;;;5020733;28;20251;-87
2022/07/22 01:20:26;;;;;;;9.52;9.23;;;19.10;99.90;;;;;;5021034;28;20224;-87
2022/07/22 01:22:54;;;;;;;9.40;9.10;;;19.10;99.90;;;;;;5020282;28;20266;-86
2022/07/22 01:25:23;;;;;;;9.30;9.00;;;19.10;99.90;;;;;;5019430;28;20298;-87
2022/07/22 01:27:51;;;;;;;9.20;8.90;;;19.00;99.90;;;;;;5020220;28;21114;-87
2022/07/22 01:30:19;;;;;;;9.35;9.05;;;19.00;99.90;;;;;;5020117;28;20232;-87
2022/07/22 01:32:47;;;;;;;9.10;8.80;;;18.90;99.90;;;;;;5020222;28;20232;-87
2022/07/22 01:35:14;;;;;;;9.40;9.10;;;18.80;99.90;;;;;;5019878;28;20232;-87
2022/07/22 01:37:44;;;;;;;9.18;8.88;;;18.80;99.90;;;;;;5020211;28;20235;-87
2022/07/22 01:40:13;;;;;;;9.20;8.93;;;18.70;99.90;;;;;;5019866;28;20251;-87
2022/07/22 01:42:42;;;;;;;9.43;9.13;;;18.70;99.90;;;;;;5019486;28;20239;-88
2022/07/22 01:45:12;;;;;;;9.45;9.15;;;18.70;99.90;;;;;;5020009;28;20351;-87
2022/07/22 01:47:40;;;;;;;9.30;9.00;;;18.60;99.90;;;;;;5021052;28;20279;-87
2022/07/22 01:50:11;;;;;;;9.43;9.13;;;18.60;99.90;;;;;;5024414;28;20247;-88
2022/07/22 01:52:39;;;;;;;9.60;9.30;;;18.50;99.90;;;;;;5040135;28;20235;-87
2022/07/22 01:55:11;;;;;;;9.35;9.05;;;18.50;99.90;;;;;;5031838;28;20236;-87
2022/07/22 01:57:39;;;;;;;9.50;9.20;;;18.50;99.90;;;;;;5021670;28;20224;-86
2022/07/22 02:00:09;;;;;;;9.50;9.20;;;18.40;99.90;;;;;;5052839;22;20238;-77
2022/07/22 02:02:37;;;;;;;9.02;8.80;;;18.40;99.90;;;;;;5032747;28;20235;-78
2022/07/22 02:05:06;;;;;;;9.15;8.88;;;18.30;99.90;;;;;;5022941;28;20263;-77
2022/07/22 02:07:34;;;;;;;8.90;8.70;;;18.30;99.90;;;;;;5033788;28;20274;-78
2022/07/22 02:10:02;;;;;;;9.00;8.80;;;18.30;99.90;;;;;;5012507;28;20241;-78
2022/07/22 02:12:31;;;;;;;8.95;8.75;;;18.20;99.90;;;;;;5001743;28;20240;-78
2022/07/22 02:14:58;;;;;;;9.10;8.85;;;18.20;99.90;;;;;;5001190;28;20237;-78
2022/07/22 02:17:26;;;;;;;9.43;9.13;;;18.20;99.90;;;;;;5012998;28;20294;-78
2022/07/22 02:19:54;;;;;;;9.35;9.05;;;18.20;99.90;;;;;;5020116;28;20259;-78
2022/07/22 02:22:25;;;;;;;9.30;9.00;;;18.20;99.90;;;;;;5020546;28;20342;-78
2022/07/22 02:24:54;;;;;;;9.55;9.25;;;18.10;99.90;;;;;;5020336;28;20255;-78
2022/07/22 02:27:24;;;;;;;9.20;8.90;;;18.10;99.90;;;;;;5021235;28;20267;-79
2022/07/22 02:29:58;;;;;;;9.35;9.05;;;18.10;99.90;;;;;;5021323;28;20241;-78
2022/07/22 02:32:26;;;;;;;9.00;8.80;;;18.00;99.90;;;;;;5021098;28;20240;-78
2022/07/22 02:34:53;;;;;;;9.50;9.20;;;18.00;99.90;;;;;;5020343;28;20247;-77
2022/07/22 02:37:22;;;;;;;9.30;9.00;;;17.90;99.90;;;;;;5020896;28;20301;-78
2022/07/22 02:39:52;;;;;;;9.25;8.95;;;17.80;99.90;;;;;;5020143;28;20786;-78
2022/07/22 02:42:20;;;;;;;9.52;9.23;;;17.80;99.90;;;;;;5020774;28;20259;-77
2022/07/22 02:44:49;;;;;;;9.35;9.05;;;17.70;99.90;;;;;;5011598;28;20260;-78
2022/07/22 02:47:21;;;;;;;9.10;8.80;;;17.60;99.90;;;;;;5020162;28;20236;-76
2022/07/22 02:49:48;;;;;;;9.32;9.02;;;17.50;99.90;;;;;;5020149;28;20232;-78
2022/07/22 02:52:16;;;;;;;9.30;9.00;;;17.50;99.90;;;;;;5020539;28;20287;-78
2022/07/22 02:54:44;;;;;;;9.43;9.13;;;17.50;99.90;;;;;;5020170;28;20259;-78
2022/07/22 02:57:11;;;;;;;9.00;8.80;;;17.50;99.90;;;;;;5019975;28;20783;-78
2022/07/22 02:59:39;;;;;;;9.20;8.90;;;17.40;99.90;;;;;;5019328;28;20232;-78
2022/07/22 03:02:08;;;;;;;9.02;8.82;;;17.40;99.90;;;;;;5020639;28;20264;-78
2022/07/22 03:04:37;;;;;;;9.40;9.10;;;17.40;99.90;;;;;;5021057;28;20228;-77
2022/07/22 03:07:05;;;;;;;9.13;8.88;;;17.40;99.90;;;;;;5020459;28;20275;-78
2022/07/22 03:09:33;;;;;;;9.73;9.43;;;17.30;99.90;;;;;;5019914;28;20236;-78
2022/07/22 03:12:02;;;;;;;9.65;9.35;;;17.30;99.90;;;;;;5020161;28;20260;-78
2022/07/22 03:14:30;;;;;;;9.57;9.27;;;17.30;99.90;;;;;;5019534;28;20232;-78
2022/07/22 03:16:58;;;;;;;9.80;9.50;;;17.20;99.90;;;;;;5020713;28;20224;-78
2022/07/22 03:19:25;;;;;;;9.65;9.35;;;17.20;99.90;;;;;;5020000;28;20236;-78
2022/07/22 03:21:56;;;;;;;9.80;9.50;;;17.10;99.90;;;;;;5019807;28;20295;-78
2022/07/22 03:24:25;;;;;;;9.70;9.40;;;17.10;99.90;;;;;;5019917;28;20294;-77
2022/07/22 03:26:53;;;;;;;10.02;9.73;;;17.00;99.90;;;;;;5019377;28;20232;-78
2022/07/22 03:29:23;;;;;;;9.80;9.50;;;17.00;99.90;;;;;;5019719;28;20229;-78
2022/07/22 03:31:51;;;;;;;9.73;9.43;;;17.00;99.90;;;;;;5020032;28;20287;-78
2022/07/22 03:34:19;;;;;;;9.90;9.60;;;17.00;99.90;;;;;;5019880;28;20310;-78
2022/07/22 03:36:47;;;;;;;9.85;9.55;;;17.00;99.90;;;;;;5019610;28;20247;-78
2022/07/22 03:39:16;;;;;;;9.60;9.30;;;17.10;99.90;;;;;;5009418;28;20233;-78
2022/07/22 03:41:43;;;;;;;9.50;9.20;;;17.00;99.90;;;;;;5000873;28;20296;-77
2022/07/22 03:44:12;;;;;;;9.50;9.20;;;17.00;99.90;;;;;;5001726;28;20229;-78
2022/07/22 03:46:39;;;;;;;9.50;9.20;;;17.00;99.90;;;;;;5013841;28;20224;-76
2022/07/22 03:49:09;;;;;;;9.40;9.10;;;17.00;99.90;;;;;;5019385;28;20244;-76
2022/07/22 03:51:37;;;;;;;9.23;8.93;;;17.00;99.90;;;;;;5019807;28;20233;-75
2022/07/22 03:54:05;;;;;;;9.38;9.07;;;17.00;99.90;;;;;;5019899;28;20221;-77
2022/07/22 03:56:34;;;;;;;9.43;9.13;;;17.00;99.90;;;;;;5018997;28;20229;-76
2022/07/22 03:59:02;;;;;;;9.40;9.10;;;17.00;99.90;;;;;;5011456;28;20242;-78
2022/07/22 04:01:29;;;;;;;9.50;9.20;;;17.00;99.90;;;;;;5006988;28;20241;-78
2022/07/22 04:03:57;;;;;;;9.20;8.90;;;17.00;99.90;;;;;;5003495;28;20256;-78
2022/07/22 04:06:25;;;;;;;9.20;8.90;;;17.10;99.90;;;;;;5000622;28;20275;-78
2022/07/22 04:08:52;;;;;;;9.30;9.00;;;17.10;99.90;;;;;;5000355;28;20229;-77
2022/07/22 04:11:20;;;;;;;9.60;9.30;;;17.10;99.90;;;;;;5000342;28;20237;-78
2022/07/22 04:13:49;;;;;;;9.35;9.05;;;17.20;99.90;;;;;;5000262;28;20233;-77
2022/07/22 04:16:16;;;;;;;9.60;9.30;;;17.20;99.90;;;;;;5001525;28;20271;-77
2022/07/22 04:18:46;;;;;;;9.40;9.10;;;17.20;99.90;;;;;;5001767;28;20233;-79
2022/07/22 04:21:16;;;;;;;9.40;9.10;;;17.20;99.90;;;;;;5004462;28;20255;-79
2022/07/22 04:23:45;;;;;;;9.30;9.00;;;17.20;99.90;;;;;;5001217;28;20232;-80
2022/07/22 04:26:16;;;;;;;9.43;9.13;;;17.20;99.90;;;;;;5001824;28;20295;-79
2022/07/22 04:28:45;;;;;;;9.50;9.20;;;17.20;99.90;;;;;;5004965;28;20304;-80
2022/07/22 04:31:16;;;;;;;9.00;8.70;;;17.20;99.90;;;;;;5004939;28;20236;-79
2022/07/22 04:33:44;;;;;;;9.30;9.00;;;17.20;99.90;;;;;;5004330;28;20264;-80
2022/07/22 04:36:11;;;;;;;8.73;8.52;;;17.30;99.90;;;;;;5003839;28;20227;-79
2022/07/22 04:38:39;;;;;;;9.10;8.80;;;17.30;99.90;;;;;;5003959;28;20228;-79
2022/07/22 04:41:11;;;;;;;9.20;8.90;;;17.40;99.90;;;;;;5003795;28;20237;-79
2022/07/22 04:43:41;;;;;;;8.50;8.30;;;17.50;99.90;;;;;;5004200;28;20288;-79
2022/07/22 04:46:10;;;;;;;9.10;8.80;;;17.50;99.90;;;;;;5003247;28;20376;-79
2022/07/22 04:48:48;;;;;;;8.95;8.68;;;17.50;99.90;;;;;;5003299;28;20244;-80
2022/07/22 04:51:18;;;;;;;9.10;8.80;;;17.60;99.90;;;;;;5004413;28;20295;-79
2022/07/22 04:53:47;;;;;;;8.73;8.52;;;17.60;99.90;;;;;;5004361;28;20279;-80
2022/07/22 04:56:17;;;;;;;8.90;8.60;;;17.70;99.90;;;;;;5002971;28;20252;-79
2022/07/22 04:58:47;;;;;;;8.70;8.50;;;17.70;99.90;;;;;;5002889;28;20288;-79
2022/07/22 05:01:16;;;;;;;8.63;8.43;;;17.80;99.90;;;;;;5003065;28;20340;-79
2022/07/22 05:03:48;;;;;;;8.82;8.63;;;17.90;99.90;;;;;;5003805;28;20239;-80
2022/07/22 05:06:16;;;;;;;8.73;8.52;;;17.90;99.90;;;;;;5002437;28;20245;-79
2022/07/22 05:08:44;;;;;;;8.70;8.50;;;18.00;99.90;;;;;;5002882;28;20296;-80
2022/07/22 05:11:14;;;;;;;9.23;8.93;;;18.10;99.90;;;;;;5003281;28;20237;-80
2022/07/22 05:13:44;;;;;;;9.10;8.80;;;18.20;99.90;;;;;;5002958;28;20368;-79
2022/07/22 05:16:14;;;;;;;9.38;9.07;;;18.30;99.90;;;;;;5001985;28;20233;-80
2022/07/22 05:18:44;;;;;;;9.10;8.80;;;18.40;99.90;;;;;;5002665;28;20268;-80
2022/07/22 05:21:24;;;;;;;9.02;8.73;;;18.50;99.90;;;;;;5002394;28;20236;-79
2022/07/22 05:23:51;;;;;;;9.27;8.98;;;18.60;99.90;;;;;;5002683;28;20233;-80
2022/07/22 05:26:21;;;;;;;9.40;9.10;;;18.70;99.90;;;;;;5002248;28;20241;-79
2022/07/22 05:28:50;;;;;;;9.07;8.77;;;18.70;99.90;;;;;;5002297;28;20256;-79
2022/07/22 05:31:20;;;;;;;9.20;8.90;;;18.80;99.90;;;;;;5002458;28;20296;-79
2022/07/22 05:33:49;;;;;;;9.18;8.88;;;18.90;99.90;;;;;;5002666;28;20260;-80
2022/07/22 05:36:28;;;;;;;9.25;8.95;;;19.10;99.90;;;;;;5003454;28;20249;-80
2022/07/22 05:38:57;;;;;;;9.18;8.88;;;19.20;99.90;;;;;;5002368;28;20264;-80
2022/07/22 05:41:26;;;;;;;9.48;9.18;;;19.40;99.90;;;;;;5002604;28;20394;-80
2022/07/22 05:43:56;;;;;;;9.90;9.60;;;19.50;99.90;;;;;;5002704;28;20228;-80
2022/07/22 05:46:25;;;;;;;9.73;9.43;;;19.60;99.90;;;;;;5001486;28;20245;-80
2022/07/22 05:48:54;;;;;;;10.00;9.70;;;19.70;99.90;;;;;;5002135;28;20221;-80
2022/07/22 05:51:34;;;;;;;9.98;9.68;;;19.90;99.90;;;;;;5002850;28;20256;-80
2022/07/22 05:54:03;;;;;;;9.90;9.60;;;20.00;99.90;;;;;;5002961;28;20259;-79
2022/07/22 05:56:31;;;;;;;10.10;9.80;;;20.10;99.90;;;;;;5002106;28;20264;-79
2022/07/22 05:59:01;;;;;;;10.00;9.70;;;20.20;99.90;;;;;;5001593;28;20224;-80
2022/07/22 06:01:30;;;;;;;10.30;10.00;;;20.20;99.90;;;;;;5001913;28;20237;-79
2022/07/22 06:04:00;;;;;;;10.13;9.82;;;20.20;99.90;;;;;;5001566;28;20283;-79
2022/07/22 06:06:38;;;;;;;10.27;9.98;;;20.20;99.90;;;;;;5000976;28;20241;-79
2022/07/22 06:09:08;;;;;;;10.10;9.80;;;20.20;99.90;;;;;;5001281;28;20328;-80
2022/07/22 06:11:37;;;;;;;9.95;9.65;;;20.30;99.90;;;;;;5003646;28;20229;-83
2022/07/22 06:14:06;;;;;;;10.55;10.25;;;20.50;99.90;;;;;;5009887;28;20216;-83
2022/07/22 06:16:36;;;;;;;10.50;10.20;;;20.50;99.90;;;;;;5017315;28;20233;-83
2022/07/22 06:19:05;;;;;;;10.55;10.25;;;20.60;99.90;;;;;;5006774;28;20237;-84
2022/07/22 06:21:44;;;;;;;10.70;10.40;;;20.70;99.90;;;;;;5005757;28;20244;-86
2022/07/22 06:24:13;;;;;;;10.70;10.40;;;20.80;99.90;;;;;;5003318;28;20236;-86
2022/07/22 06:26:43;;;;;;;10.63;10.32;;;20.90;99.90;;;;;;5004530;28;20248;-84
2022/07/22 06:29:12;;;;;;;10.93;10.63;;;21.00;99.90;;;;;;5002143;28;20296;-86
2022/07/22 06:31:41;;;;;;;10.75;10.45;;;21.10;99.90;;;;;;5001922;28;20237;-87
2022/07/22 06:34:11;;;;;;;11.07;10.77;;;21.20;99.90;;;;;;5002788;28;20257;-86
2022/07/22 06:36:49;;;;;;;10.82;10.52;;;21.30;99.90;;;;;;5006142;28;20273;-84
2022/07/22 06:39:18;;;;;;;10.90;10.60;;;21.30;99.90;;;;;;5002435;28;20245;-86
2022/07/22 06:41:48;;;;;;;11.70;11.30;;;21.40;99.90;;;;;;5000307;28;20463;-83
2022/07/22 06:44:17;;;;;;;11.18;10.88;;;21.60;99.90;;;;;;5006556;28;20256;-85
2022/07/22 06:46:47;;;;;;;11.25;10.90;;;21.70;99.90;;;;;;5001954;28;20236;-85
2022/07/22 06:49:17;;;;;;;11.40;11.00;;;21.90;99.90;;;;;;5000606;28;20292;-85
2022/07/22 06:51:55;;;;;;;11.20;10.90;;;22.00;99.90;;;;;;5003593;28;20240;-85
2022/07/22 06:54:24;;;;;;;11.15;10.85;;;22.10;99.90;;;;;;5003965;28;20241;-86
2022/07/22 06:56:53;;;;;;;11.43;11.02;;;22.20;99.90;;;;;;5006181;28;20261;-83
2022/07/22 06:59:23;;;;;;;11.10;10.80;;;22.20;99.90;;;;;;5005700;28;20327;-84
2022/07/22 07:01:52;;;;;;;10.93;10.63;;;22.20;99.90;;;;;;5005346;28;20697;-83
2022/07/22 07:04:22;;;;;;;10.77;10.48;;;22.30;99.90;;;;;;5005765;28;20239;-86
2022/07/22 07:07:00;;;;;;;10.80;10.50;;;22.40;99.90;;;;;;5005807;28;20260;-84
2022/07/22 07:09:29;;;;;;;10.63;10.32;;;22.50;99.90;;;;;;5005726;28;20253;-84
2022/07/22 07:11:59;;;;;;;10.70;10.40;;;22.60;99.90;;;;;;5005714;28;20354;-85
2022/07/22 07:14:31;;;;;;;10.55;10.25;;;22.70;99.90;;;;;;5006514;28;20260;-85
2022/07/22 07:17:00;;;;;;;10.85;10.55;;;22.80;99.90;;;;;;5006280;28;20241;-84
2022/07/22 07:19:30;;;;;;;10.70;10.40;;;22.90;99.90;;;;;;5006631;28;20233;-83
2022/07/22 07:22:01;;;;;;;10.60;10.30;;;22.70;99.90;;;;;;5011167;28;20232;-84
2022/07/22 07:24:29;;;;;;;10.40;10.10;;;22.80;99.90;;;;;;5022561;28;20243;-85
2022/07/22 07:26:58;;;;;;;10.40;10.10;;;23.00;99.90;;;;;;5023951;28;20240;-84
2022/07/22 07:29:28;;;;;;;10.60;10.30;;;23.00;99.90;;;;;;5018383;28;21006;-86
2022/07/22 07:31:57;;;;;;;10.68;10.38;;;23.10;99.90;;;;;;5002659;28;20236;-85
2022/07/22 07:34:27;;;;;;;10.50;10.20;;;23.20;99.90;;;;;;5018198;28;20232;-84
2022/07/22 07:36:57;;;;;;;10.57;10.27;;;23.30;99.90;;;;;;5015832;28;20225;-84
2022/07/22 07:39:28;;;;;;;10.77;10.48;;;23.40;99.90;;;;;;5005966;28;20229;-84
2022/07/22 07:41:56;;;;;;;10.90;10.60;;;23.40;99.90;;;;;;5007298;28;20233;-85
2022/07/22 07:44:23;;;;;;;10.98;10.68;;;23.40;99.90;;;;;;5020141;28;20260;-84
2022/07/22 07:46:53;;;;;;;11.00;10.70;;;23.10;99.90;;;;;;5019396;28;20236;-83
2022/07/22 07:49:22;;;;;;;10.90;10.60;;;23.30;99.90;;;;;;5024807;28;20244;-85
2022/07/22 07:51:52;;;;;;;11.10;10.80;;;23.50;99.90;;;;;;5017448;28;20229;-85
2022/07/22 07:54:21;;;;;;;11.00;10.70;;;23.50;99.90;;;;;;5012076;28;20229;-85
2022/07/22 07:57:02;;;;;;;11.20;10.90;;;23.60;99.90;;;;;;5011553;28;20236;-85
2022/07/22 07:59:30;;;;;;;10.90;10.60;;;23.80;99.90;;;;;;5045915;23;20230;-84
2022/07/22 08:02:00;;;;;;;10.90;10.60;;;23.90;99.90;;;;;;5056309;28;20234;-85
2022/07/22 08:04:29;;;;;;;11.00;10.70;;;24.00;99.90;;;;;;5049532;28;20231;-83
2022/07/22 08:07:01;;;;;;;11.23;10.93;;;24.10;99.90;;;;;;5063652;28;20242;-82
2022/07/22 08:09:28;;;;;;;11.10;10.80;;;24.10;99.90;;;;;;5063800;28;20253;-81
2022/07/22 08:11:58;;;;;;;11.02;10.73;;;24.10;99.90;;;;;;5061923;28;20242;-82
2022/07/22 08:14:29;;;;;;;10.73;10.43;;;24.30;99.90;;;;;;5056448;28;20237;-82
2022/07/22 08:16:57;;;;;;;10.80;10.50;;;24.50;99.90;;;;;;5061085;28;20748;-79
2022/07/22 08:19:25;;;;;;;11.00;10.70;;;24.60;99.90;;;;;;5057092;28;20223;-78
2022/07/22 08:21:53;;;;;;;11.10;10.80;;;24.70;99.90;;;;;;5066205;28;20230;-78
2022/07/22 08:24:21;;;;;;;11.15;10.85;;;24.90;99.90;;;;;;5064581;28;20265;-79
2022/07/22 08:26:49;;;;;;;10.93;10.63;;;25.00;99.90;;;;;;5060344;28;20235;-80
2022/07/22 08:29:18;;;;;;;11.20;10.90;;;25.20;99.90;;;;;;5060641;28;20231;-81
2022/07/22 08:31:47;;;;;;;11.30;11.00;;;25.30;99.90;;;;;;5058070;28;20238;-80
2022/07/22 08:34:15;;;;;;;11.32;11.02;;;25.40;99.90;;;;;;5050150;28;20262;-80
2022/07/22 08:36:43;;;;;;;11.68;11.27;;;25.40;99.90;;;;;;5047725;28;20293;-79
2022/07/22 08:39:11;;;;;;;11.13;10.82;;;25.60;99.90;;;;;;5041607;28;20321;-79
2022/07/22 08:41:40;;;;;;;11.13;10.82;;;25.80;99.90;;;;;;5054328;28;20267;-81
2022/07/22 08:44:10;;;;;;;11.15;10.85;;;26.00;99.90;;;;;;5054617;28;20314;-79
2022/07/22 08:46:39;;;;;;;11.13;10.82;;;26.10;99.90;;;;;;5036227;28;20227;-79
2022/07/22 08:49:08;;;;;;;11.10;10.80;;;26.40;99.90;;;;;;5038226;28;20262;-80
2022/07/22 08:51:36;;;;;;;11.35;11.05;;;26.50;99.90;;;;;;5039497;28;20242;-80
2022/07/22 08:54:05;;;;;;;10.95;10.65;;;26.60;99.90;;;;;;5047397;28;20230;-79
2022/07/22 08:56:33;;;;;;;11.10;10.80;;;26.80;99.90;;;;;;5048824;28;20242;-80
2022/07/22 08:59:00;;;;;;;11.30;11.00;;;27.00;99.90;;;;;;5044502;28;20298;-77
2022/07/22 09:01:28;;;;;;;11.40;11.10;;;27.40;99.90;;;;;;5034852;28;20244;-78
2022/07/22 09:03:58;;;;;;;11.50;11.18;;;27.50;99.90;;;;;;5035869;28;20260;-79
2022/07/22 09:06:33;;;;;;;11.38;11.07;;;27.60;99.90;;;;;;5036673;28;20314;-79
2022/07/22 09:09:04;;;;;;;11.40;11.10;;;27.60;99.90;;;;;;5038838;28;20234;-79
2022/07/22 09:11:33;;;;;;;11.20;10.90;;;27.60;99.90;;;;;;5043860;28;20258;-80
2022/07/22 09:14:01;;;;;;;11.55;11.25;;;27.60;99.90;;;;;;5048449;28;20236;-81
2022/07/22 09:16:43;;;;;;;11.25;10.95;;;27.50;99.90;;;;;;5039269;28;20235;-79
2022/07/22 09:19:14;;;;;;;11.13;10.82;;;27.80;99.90;;;;;;5040525;28;20323;-79
2022/07/22 09:21:47;;;;;;;11.15;10.85;;;28.10;99.90;;;;;;5041465;28;20293;-79
2022/07/22 09:24:29;;;;;;;11.38;11.07;;;28.40;99.90;;;;;;5040883;28;20235;-78
2022/07/22 09:26:57;;;;;;;11.75;11.35;;;28.70;99.90;;;;;;5042944;28;20238;-80
2022/07/22 09:29:25;;;;;;;11.15;10.85;;;29.10;99.90;;;;;;5053523;28;20243;-80
2022/07/22 09:31:55;;;;;;;11.73;11.32;;;29.30;99.90;;;;;;5057022;28;20235;-78
2022/07/22 09:34:31;;;;;;;11.70;11.30;;;29.20;99.90;;;;;;5056712;28;20226;-80
2022/07/22 09:37:02;;;;;;;11.80;11.40;;;29.20;99.90;;;;;;5047227;28;20226;-80
2022/07/22 09:39:31;;;;;;;11.65;11.25;;;29.40;99.90;;;;;;5045210;28;20231;-80
2022/07/22 09:41:59;;;;;;;11.70;11.30;;;29.70;99.90;;;;;;5061804;28;20233;-79
2022/07/22 09:44:28;;;;;;;11.48;11.18;;;30.00;99.90;;;;;;5060179;28;20335;-79
2022/07/22 09:46:55;;;;;;;11.32;11.02;;;30.30;99.90;;;;;;5060025;28;20235;-79
2022/07/22 09:49:37;;;;;;;11.15;10.85;;;30.00;99.90;;;;;;5062939;28;20254;-80
2022/07/22 09:52:05;;;;;;;11.32;11.02;;;30.30;99.90;;;;;;5065657;28;20227;-79
2022/07/22 09:54:33;;;;;;;11.40;11.10;;;30.40;99.90;;;;;;5063146;28;20325;-80
2022/07/22 09:57:01;;;;;;;11.50;11.20;;;30.20;99.90;;;;;;5064033;28;20257;-79
2022/07/22 09:59:28;;;;;;;11.40;11.10;;;30.20;99.90;;;;;;5063534;28;20318;-80
2022/07/22 10:01:59;;;;;;;11.45;11.15;;;30.30;99.90;;;;;;5063936;28;20304;-79
2022/07/22 10:04:34;;;;;;;11.13;10.82;;;30.30;99.90;;;;;;5047099;28;20266;-80
2022/07/22 10:07:03;;;;;;;11.57;11.25;;;30.80;99.90;;;;;;5061983;28;20249;-79
2022/07/22 10:09:32;;;;;;;11.50;11.20;;;31.10;99.90;;;;;;5060017;28;20262;-79
2022/07/22 10:12:00;;;;;;;11.50;11.20;;;31.10;99.90;;;;;;5051688;28;20231;-79
2022/07/22 10:14:30;;;;;;;11.30;11.00;;;31.10;99.90;;;;;;5060552;28;20281;-79
2022/07/22 10:16:57;;;;;;;11.35;11.05;;;31.10;99.90;;;;;;5060251;28;20227;-79
2022/07/22 10:19:25;;;;;;;11.23;10.93;;;31.10;99.90;;;;;;5054203;28;20239;-79
2022/07/22 10:21:54;;;;;;;11.20;10.90;;;31.60;99.90;;;;;;5061822;28;20250;-80
2022/07/22 10:24:23;;;;;;;11.32;11.02;;;31.80;99.90;;;;;;5061399;28;20273;-80
2022/07/22 10:26:55;;;;;;;11.80;11.40;;;32.00;99.90;;;;;;5050480;28;20298;-79
2022/07/22 10:29:31;;;;;;;11.45;11.15;;;32.00;99.90;;;;;;5039197;28;20222;-80
2022/07/22 10:32:27;;;;;;;11.77;11.38;;;32.10;99.90;;;;;;5039599;28;20247;-79
2022/07/22 10:35:26;;;;;;;11.65;11.27;;;32.10;99.90;;;;;;5039081;28;20231;-80
2022/07/22 10:37:59;;;;;;;11.57;11.23;;;31.90;99.90;;;;;;5038576;28;20259;-80
2022/07/22 10:40:29;;;;;;;11.35;11.05;;;32.10;99.90;;;;;;5038244;28;20294;-80
2022/07/22 10:43:13;;;;;;;11.55;11.23;;;32.20;99.90;;;;;;5039402;28;20232;-79
2022/07/22 10:45:46;;;;;;;11.25;10.95;;;32.20;99.90;;;;;;5040159;28;20231;-80
2022/07/22 10:48:16;;;;;;;11.35;11.05;;;32.40;99.90;;;;;;5052339;28;20238;-79
2022/07/22 10:50:55;;;;;;;11.43;11.13;;;32.70;99.90;;;;;;5046057;28;20282;-79
2022/07/22 10:53:27;;;;;;;11.68;11.27;;;32.40;99.90;;;;;;5038690;28;20234;-78
2022/07/22 10:56:29;;;;;;;11.82;11.43;;;32.60;99.90;;;;;;5052190;28;20302;-78
2022/07/22 10:59:09;;;;;;;11.63;11.23;;;32.80;99.90;;;;;;5060978;28;20256;-81
2022/07/22 11:01:39;;;;;;;11.73;11.32;;;32.70;99.90;;;;;;5067097;28;20219;-80
2022/07/22 11:04:14;;;;;;;11.80;11.40;;;33.10;99.90;;;;;;5068699;28;20231;-81
2022/07/22 11:06:43;;;;;;;11.70;11.30;;;33.40;99.90;;;;;;5058932;28;20278;-81
2022/07/22 11:09:16;;;;;;;11.90;11.50;;;33.50;99.90;;;;;;5063851;28;20227;-82
2022/07/22 11:11:47;;;;;;;11.90;11.50;;;33.20;99.90;;;;;;5058047;28;20527;-82
2022/07/22 11:14:26;;;;;;;11.40;11.10;;;33.50;99.90;;;;;;5062972;28;20257;-83
2022/07/22 11:16:56;;;;;;;11.80;11.40;;;33.30;99.90;;;;;;5064362;28;20230;-82
2022/07/22 11:19:27;;;;;;;11.73;11.32;;;33.30;99.90;;;;;;5055382;28;20231;-82
2022/07/22 11:21:58;;;;;;;11.43;11.13;;;33.10;99.90;;;;;;5073352;28;20219;-82
2022/07/22 11:24:28;;;;;;;11.57;11.27;;;33.10;99.90;;;;;;5070866;28;20253;-82
2022/07/22 11:26:58;;;;;;;11.38;11.07;;;33.30;99.90;;;;;;5075006;28;20227;-82
2022/07/22 11:29:28;;;;;;;11.48;11.15;;;33.40;99.90;;;;;;5060389;28;20278;-82
2022/07/22 11:31:59;;;;;;;11.30;11.00;;;33.50;99.90;;;;;;5047998;28;20231;-82
2022/07/22 11:34:27;;;;;;;11.60;11.27;;;33.40;99.90;;;;;;5052858;28;20240;-81
2022/07/22 11:36:57;;;;;;;11.40;11.10;;;33.30;99.90;;;;;;5045187;28;20231;-81
2022/07/22 11:39:28;;;;;;;11.20;10.90;;;33.50;99.90;;;;;;5050801;28;20231;-81
2022/07/22 11:41:59;;;;;;;11.23;10.93;;;33.60;99.90;;;;;;5059895;28;20249;-82
2022/07/22 11:44:30;;;;;;;11.38;11.07;;;33.70;99.90;;;;;;5054139;28;20235;-82
2022/07/22 11:46:59;;;;;;;11.45;11.15;;;33.90;99.90;;;;;;5045383;28;20227;-81
2022/07/22 11:49:29;;;;;;;11.20;10.90;;;34.30;99.90;;;;;;5044664;28;20243;-82
2022/07/22 11:51:57;;;;;;;11.20;10.90;;;34.20;99.90;;;;;;5041616;28;20254;-81
2022/07/22 11:54:25;;;;;;;11.18;10.88;;;34.20;99.90;;;;;;5042844;28;20285;-84
2022/07/22 11:56:56;;;;;;;11.23;10.93;;;34.40;99.90;;;;;;5046278;28;20231;-84
2022/07/22 11:59:24;;;;;;;11.20;10.90;;;34.40;99.90;;;;;;5040345;28;20232;-84
2022/07/22 12:01:52;;;;;;;11.18;10.88;;;34.60;99.90;;;;;;5041263;28;20235;-84
2022/07/22 12:04:22;;;;;;;11.20;10.90;;;34.90;99.90;;;;;;5041913;28;20245;-84
2022/07/22 12:06:53;;;;;;;11.27;10.98;;;35.00;99.90;;;;;;5054428;28;20231;-84
2022/07/22 12:09:24;;;;;;;11.18;10.88;;;34.70;99.90;;;;;;5041001;28;20259;-83
2022/07/22 12:11:57;;;;;;;10.98;10.68;;;34.70;99.90;;;;;;5038253;28;20228;-85
2022/07/22 12:14:28;;;;;;;11.75;11.45;;;34.80;99.90;;;;;;5037618;28;20467;-85
2022/07/22 12:16:59;;;;;;;11.45;11.15;;;35.10;99.90;;;;;;5037989;28;20233;-85
2022/07/22 12:19:30;;;;;;;11.73;11.32;;;35.30;99.90;;;;;;5040106;28;20277;-85
2022/07/22 12:22:01;;;;;;;11.85;11.45;;;35.20;99.90;;;;;;5057923;28;20237;-86
2022/07/22 12:24:32;;;;;;;11.50;11.20;;;35.30;99.90;;;;;;5037743;28;20294;-87
2022/07/22 12:27:03;;;;;;;11.20;10.90;;;35.80;99.90;;;;;;5040579;28;20245;-87
2022/07/22 12:29:43;;;;;;;11.30;11.00;;;35.50;99.90;;;;;;5049732;28;20230;-84
2022/07/22 12:32:16;;;;;;;11.50;11.20;;;35.40;99.90;;;;;;5049946;28;20219;-84
2022/07/22 12:34:47;;;;;;;11.43;11.13;;;35.30;99.90;;;;;;5052882;28;20239;-83
2022/07/22 12:37:19;;;;;;;11.70;11.32;;;35.30;99.90;;;;;;5053113;28;20272;-83
2022/07/22 12:40:01;;;;;;;11.35;11.05;;;35.50;99.90;;;;;;5044687;28;20243;-85
2022/07/22 12:42:33;;;;;;;11.35;11.05;;;35.60;99.90;;;;;;5039722;28;20231;-84
2022/07/22 12:45:06;;;;;;;11.30;11.00;;;35.60;99.90;;;;;;5037292;28;20239;-84
2022/07/22 12:47:47;;;;;;;11.15;10.85;;;35.90;99.90;;;;;;5037373;28;20231;-84
2022/07/22 12:50:24;;;;;;;11.25;10.95;;;36.00;99.90;;;;;;5041960;28;20295;-84